Time;durP1;ratioP1;P1;durP2;ratioP2;P2;SDS_P1;SDS_P2;PMS_P1;PMS_P2;Temp;Humidity;BMP_temperature;BMP_pressure;BME280_temperature;BME280_humidity;BME280_pressure;Samples;Min_cycle;Max_cycle;Signal;HPM_P1;HPM_P2
2021/07/08 00:02:33;;;;;;;38.72;14.18;;;16.70;66.00;;;;;;5090468;28;20035;-58
2021/07/08 00:05:01;;;;;;;14.10;11.88;;;16.60;66.00;;;;;;5088661;28;20123;-58
2021/07/08 00:07:28;;;;;;;16.13;10.48;;;16.50;67.00;;;;;;5090877;28;20036;-52
2021/07/08 00:09:55;;;;;;;14.15;9.43;;;16.60;66.20;;;;;;5082654;28;20031;-49
2021/07/08 00:12:23;;;;;;;15.30;9.77;;;17.10;65.50;;;;;;5090672;28;20031;-56
2021/07/08 00:14:50;;;;;;;15.90;10.10;;;17.40;64.70;;;;;;5091526;28;20028;-53
2021/07/08 00:17:17;;;;;;;12.07;9.35;;;17.50;63.50;;;;;;5090417;28;20051;-54
2021/07/08 00:19:45;;;;;;;13.63;8.63;;;17.70;63.70;;;;;;5082411;28;20032;-56
2021/07/08 00:22:12;;;;;;;13.18;9.32;;;17.90;63.00;;;;;;5090208;28;20031;-54
2021/07/08 00:24:39;;;;;;;16.73;8.40;;;18.00;62.40;;;;;;5091863;28;20119;-56
2021/07/08 00:27:07;;;;;;;14.32;8.63;;;18.10;61.50;;;;;;5092141;28;20394;-56
2021/07/08 00:29:35;;;;;;;12.68;7.45;;;18.20;61.80;;;;;;5092354;28;20077;-59
2021/07/08 00:32:03;;;;;;;10.27;7.68;;;18.40;61.60;;;;;;5092068;28;20052;-55
2021/07/08 00:34:30;;;;;;;11.10;6.60;;;18.50;61.20;;;;;;5091772;28;20036;-61
2021/07/08 00:36:57;;;;;;;10.25;7.55;;;18.70;61.00;;;;;;5091849;28;20138;-60
2021/07/08 00:39:25;;;;;;;11.13;7.32;;;18.70;61.10;;;;;;5091351;28;20035;-56
2021/07/08 00:41:52;;;;;;;11.60;7.72;;;18.80;60.20;;;;;;5091589;28;20024;-59
2021/07/08 00:44:19;;;;;;;10.82;7.55;;;18.90;59.90;;;;;;5091266;28;20028;-53
2021/07/08 00:46:46;;;;;;;12.40;7.60;;;19.00;59.50;;;;;;5091672;28;20102;-59
2021/07/08 00:49:16;;;;;;;10.23;5.65;;;18.90;60.00;;;;;;5091569;28;20493;-55
2021/07/08 00:51:43;;;;;;;9.63;6.68;;;18.80;59.90;;;;;;5090884;28;20569;-57
2021/07/08 00:54:12;;;;;;;12.57;6.63;;;18.90;60.10;;;;;;5091615;28;20515;-52
2021/07/08 00:56:39;;;;;;;15.65;6.70;;;19.00;59.40;;;;;;5091490;28;20035;-52
2021/07/08 00:59:09;;;;;;;11.02;6.40;;;18.90;59.80;;;;;;5091071;28;20028;-53
2021/07/08 01:01:37;;;;;;;6.13;5.25;;;18.80;60.20;;;;;;5091554;28;20028;-55
2021/07/08 01:04:05;;;;;;;9.32;5.18;;;18.80;59.60;;;;;;5091653;28;20469;-60
2021/07/08 01:06:34;;;;;;;7.97;5.90;;;18.70;60.00;;;;;;5091415;28;20031;-59
2021/07/08 01:09:06;;;;;;;10.38;5.65;;;18.60;61.00;;;;;;5091585;28;20039;-61
2021/07/08 01:11:33;;;;;;;9.82;6.00;;;18.60;60.80;;;;;;5085471;28;20027;-51
2021/07/08 01:14:01;;;;;;;14.82;6.18;;;18.50;61.10;;;;;;5089273;28;20036;-56
2021/07/08 01:16:28;;;;;;;12.50;6.32;;;18.50;61.70;;;;;;5087949;28;20506;-54
2021/07/08 01:18:56;;;;;;;19.17;5.63;;;18.40;61.90;;;;;;5090547;28;20129;-57
2021/07/08 01:21:41;;;;;;;8.48;5.15;;;18.40;61.80;;;;;;5089221;28;20040;-61
2021/07/08 01:24:09;;;;;;;14.45;6.47;;;18.30;62.10;;;;;;5089007;28;20032;-56
2021/07/08 01:26:40;;;;;;;16.30;6.18;;;18.40;61.90;;;;;;5086828;28;20072;-58
2021/07/08 01:29:08;;;;;;;7.85;5.63;;;18.40;62.70;;;;;;5089363;28;20055;-52
2021/07/08 01:31:36;;;;;;;9.38;4.65;;;18.40;63.00;;;;;;5087631;28;20031;-56
2021/07/08 01:34:03;;;;;;;13.48;4.88;;;18.50;62.40;;;;;;5088793;28;20114;-56
2021/07/08 01:36:31;;;;;;;12.68;5.25;;;18.70;61.80;;;;;;5086491;28;20028;-53
2021/07/08 01:38:58;;;;;;;10.50;4.97;;;18.70;62.00;;;;;;5089194;28;20178;-52
2021/07/08 01:41:25;;;;;;;6.35;4.70;;;18.80;62.20;;;;;;5088488;28;20024;-52
2021/07/08 01:43:55;;;;;;;7.85;4.75;;;18.70;61.60;;;;;;5088877;28;20039;-51
2021/07/08 01:46:23;;;;;;;10.27;4.85;;;18.60;62.40;;;;;;5084496;28;20032;-52
2021/07/08 01:48:50;;;;;;;13.93;5.07;;;18.60;61.80;;;;;;5089270;28;20100;-58
2021/07/08 01:51:34;;;;;;;8.32;4.85;;;18.50;62.60;;;;;;5088224;28;20024;-58
2021/07/08 01:54:03;;;;;;;8.13;4.70;;;18.40;62.70;;;;;;5088412;28;20073;-59
2021/07/08 01:56:33;;;;;;;6.90;4.97;;;18.30;62.60;;;;;;5083741;28;20368;-57
2021/07/08 01:59:01;;;;;;;7.45;5.43;;;18.30;63.50;;;;;;5089206;28;20080;-57
2021/07/08 02:01:28;;;;;;;14.55;5.68;;;18.30;64.40;;;;;;5088281;28;20123;-58
2021/07/08 02:03:56;;;;;;;8.07;4.72;;;18.40;63.60;;;;;;5087979;28;20490;-55
2021/07/08 02:06:23;;;;;;;7.40;4.93;;;18.60;64.00;;;;;;5084201;28;20035;-60
2021/07/08 02:08:52;;;;;;;7.03;4.97;;;18.70;63.60;;;;;;5089042;28;20039;-60
2021/07/08 02:11:20;;;;;;;10.98;4.60;;;18.80;62.60;;;;;;5088386;28;20031;-56
2021/07/08 02:13:48;;;;;;;8.40;4.47;;;18.80;61.60;;;;;;5087404;28;20486;-58
2021/07/08 02:16:15;;;;;;;6.30;4.25;;;18.70;63.00;;;;;;5083162;28;21286;-59
2021/07/08 02:18:44;;;;;;;9.88;5.25;;;18.60;63.20;;;;;;5088674;28;20032;-56
2021/07/08 02:21:12;;;;;;;6.55;4.65;;;18.60;63.00;;;;;;5088250;28;20447;-54
2021/07/08 02:23:39;;;;;;;8.88;4.57;;;18.60;63.10;;;;;;5087466;28;20039;-56
2021/07/08 02:26:08;;;;;;;6.32;4.22;;;18.50;62.90;;;;;;5084178;28;20108;-59
2021/07/08 02:28:36;;;;;;;11.27;4.68;;;18.40;63.30;;;;;;5088104;28;20048;-56
2021/07/08 02:31:04;;;;;;;7.75;4.53;;;18.30;63.40;;;;;;5088020;28;20036;-55
2021/07/08 02:33:33;;;;;;;4.35;3.50;;;18.20;63.50;;;;;;5087131;28;20467;-53
2021/07/08 02:36:01;;;;;;;14.73;4.20;;;18.20;64.80;;;;;;5084599;28;20028;-57
2021/07/08 02:38:28;;;;;;;7.05;3.95;;;18.10;65.30;;;;;;5087603;28;20052;-52
2021/07/08 02:40:56;;;;;;;9.93;3.88;;;18.10;64.40;;;;;;5087512;28;20032;-56
2021/07/08 02:43:24;;;;;;;6.40;3.78;;;18.10;65.50;;;;;;5086119;28;20494;-56
2021/07/08 02:45:53;;;;;;;10.13;4.63;;;18.10;65.10;;;;;;5087333;28;20119;-54
2021/07/08 02:48:22;;;;;;;6.50;4.03;;;18.10;65.10;;;;;;5082172;28;20477;-56
2021/07/08 02:50:51;;;;;;;5.82;4.15;;;18.10;65.90;;;;;;5085803;28;20559;-52
2021/07/08 02:53:19;;;;;;;7.10;4.25;;;18.10;66.60;;;;;;5086439;28;20091;-55
2021/07/08 02:55:47;;;;;;;15.77;4.70;;;18.10;66.20;;;;;;5087379;28;20111;-55
2021/07/08 02:58:15;;;;;;;6.18;4.38;;;18.30;64.80;;;;;;5083861;28;20052;-55
2021/07/08 03:00:43;;;;;;;9.38;4.63;;;18.20;65.70;;;;;;5088052;28;20028;-55
2021/07/08 03:03:11;;;;;;;6.05;3.97;;;18.40;64.20;;;;;;5086507;28;20474;-55
2021/07/08 03:05:38;;;;;;;6.93;3.97;;;18.30;64.70;;;;;;5085353;28;20055;-61
2021/07/08 03:08:06;;;;;;;8.55;4.45;;;18.40;64.60;;;;;;5082202;28;20036;-50
2021/07/08 03:10:35;;;;;;;5.45;4.25;;;18.40;66.20;;;;;;5086233;28;20064;-52
2021/07/08 03:13:03;;;;;;;7.88;4.72;;;18.50;66.30;;;;;;5085765;28;20040;-57
2021/07/08 03:15:32;;;;;;;9.13;4.57;;;18.70;66.10;;;;;;5087611;28;20028;-57
2021/07/08 03:18:00;;;;;;;8.05;3.83;;;18.80;65.50;;;;;;5083127;28;20062;-50
2021/07/08 03:20:34;;;;;;;8.20;4.15;;;18.80;65.00;;;;;;5087824;28;20039;-53
2021/07/08 03:23:04;;;;;;;9.98;4.07;;;19.10;64.00;;;;;;5085526;28;20036;-58
2021/07/08 03:25:32;;;;;;;9.48;4.30;;;19.30;64.30;;;;;;5085467;28;20077;-58
2021/07/08 03:28:00;;;;;;;6.95;4.07;;;19.50;62.50;;;;;;5081761;28;20410;-59
2021/07/08 03:30:31;;;;;;;14.63;4.38;;;19.70;62.70;;;;;;5086993;28;20048;-61
2021/07/08 03:33:01;;;;;;;9.70;4.78;;;19.90;61.30;;;;;;5087253;28;20096;-55
2021/07/08 03:35:30;;;;;;;6.65;3.95;;;20.00;61.40;;;;;;5087312;28;20032;-57
2021/07/08 03:38:00;;;;;;;12.02;4.68;;;20.00;61.20;;;;;;5081279;28;20106;-56
2021/07/08 03:40:29;;;;;;;6.20;3.70;;;20.20;59.60;;;;;;5086350;28;20025;-54
2021/07/08 03:42:57;;;;;;;5.55;3.47;;;20.10;61.00;;;;;;5087296;28;20032;-57
2021/07/08 03:45:29;;;;;;;9.07;3.90;;;20.10;61.00;;;;;;5087187;28;20070;-57
2021/07/08 03:47:56;;;;;;;6.10;3.72;;;20.00;61.40;;;;;;5081640;28;20047;-60
2021/07/08 03:50:24;;;;;;;3.88;3.10;;;19.90;61.70;;;;;;5087218;28;20113;-61
2021/07/08 03:52:52;;;;;;;5.10;3.47;;;20.00;61.80;;;;;;5088900;28;20111;-59
2021/07/08 03:55:22;;;;;;;6.72;3.95;;;20.00;61.40;;;;;;5088566;28;20024;-58
2021/07/08 03:57:55;;;;;;;7.13;3.70;;;20.00;61.60;;;;;;5086938;28;20048;-60
2021/07/08 04:00:28;;;;;;;17.75;5.00;;;20.00;60.90;;;;;;5088869;28;20028;-56
2021/07/08 04:02:58;;;;;;;6.00;3.80;;;20.00;60.50;;;;;;5089203;28;20462;-59
2021/07/08 04:05:26;;;;;;;16.35;4.20;;;20.00;60.20;;;;;;5088438;28;20089;-55
2021/07/08 04:07:53;;;;;;;16.13;4.00;;;20.00;60.90;;;;;;5088894;28;20487;-56
2021/07/08 04:10:21;;;;;;;7.13;3.63;;;20.00;60.50;;;;;;5088473;28;20032;-60
2021/07/08 04:12:49;;;;;;;5.38;3.47;;;19.90;60.30;;;;;;5088274;28;20028;-58
2021/07/08 04:15:17;;;;;;;4.82;3.05;;;19.80;62.20;;;;;;5086340;28;20435;-58
2021/07/08 04:17:45;;;;;;;10.25;3.30;;;19.60;63.00;;;;;;5088245;28;20161;-59
2021/07/08 04:20:16;;;;;;;9.35;3.40;;;19.60;61.60;;;;;;5090443;28;20465;-57
2021/07/08 04:22:45;;;;;;;30.48;4.78;;;19.50;62.80;;;;;;5090864;28;20056;-59
2021/07/08 04:25:14;;;;;;;9.73;3.50;;;19.40;61.90;;;;;;5090480;28;20479;-59
2021/07/08 04:27:41;;;;;;;6.80;3.75;;;19.40;63.40;;;;;;5089333;28;20052;-58
2021/07/08 04:30:11;;;;;;;5.07;3.20;;;19.30;63.80;;;;;;5090463;28;20043;-57
2021/07/08 04:32:40;;;;;;;8.27;3.10;;;19.10;64.50;;;;;;5089667;28;20036;-58
2021/07/08 04:35:10;;;;;;;3.95;2.80;;;19.10;63.50;;;;;;5090307;28;20032;-55
2021/07/08 04:37:42;;;;;;;6.35;2.92;;;18.90;64.30;;;;;;5091506;28;20115;-54
2021/07/08 04:40:16;;;;;;;4.55;2.80;;;18.80;64.70;;;;;;5090052;28;20027;-59
2021/07/08 04:42:43;;;;;;;8.68;3.33;;;18.60;65.60;;;;;;5090189;28;20085;-59
2021/07/08 04:45:12;;;;;;;7.20;3.33;;;18.40;65.70;;;;;;5089937;28;20108;-57
2021/07/08 04:47:40;;;;;;;7.30;2.75;;;18.30;65.80;;;;;;5091563;28;20032;-57
2021/07/08 04:50:11;;;;;;;12.88;4.00;;;18.20;66.60;;;;;;5091826;28;20496;-55
2021/07/08 04:52:39;;;;;;;13.18;3.13;;;18.10;67.10;;;;;;5090288;28;20040;-53
2021/07/08 04:55:09;;;;;;;9.80;3.35;;;18.00;67.30;;;;;;5090862;28;20020;-54
2021/07/08 04:57:37;;;;;;;6.05;2.67;;;17.90;67.50;;;;;;5091535;28;20032;-61
2021/07/08 05:00:10;;;;;;;4.28;2.75;;;17.90;67.50;;;;;;5091423;28;20031;-62
2021/07/08 05:02:41;;;;;;;11.48;3.95;;;17.70;69.70;;;;;;5090927;28;20118;-60
2021/07/08 05:05:10;;;;;;;9.10;5.43;;;17.80;68.90;;;;;;5090823;28;20110;-56
2021/07/08 05:07:38;;;;;;;8.77;5.10;;;17.70;69.70;;;;;;5091386;28;20051;-54
2021/07/08 05:10:08;;;;;;;21.35;5.45;;;17.70;70.10;;;;;;5090947;28;20024;-61
2021/07/08 05:12:36;;;;;;;14.00;5.50;;;17.60;69.00;;;;;;5091262;28;20028;-62
2021/07/08 05:15:05;;;;;;;12.25;4.72;;;17.60;69.00;;;;;;5091323;28;20028;-58
2021/07/08 05:17:33;;;;;;;9.48;5.03;;;17.60;69.10;;;;;;5091308;28;20035;-59
2021/07/08 05:20:01;;;;;;;8.63;5.03;;;17.50;69.80;;;;;;5090980;28;20068;-59
2021/07/08 05:22:31;;;;;;;9.10;4.90;;;17.40;70.00;;;;;;5091202;28;20036;-61
2021/07/08 05:24:58;;;;;;;9.57;5.15;;;17.40;70.10;;;;;;5090562;28;20599;-61
2021/07/08 05:27:26;;;;;;;17.95;6.85;;;17.40;70.50;;;;;;5090687;28;20059;-59
2021/07/08 05:29:56;;;;;;;12.90;5.65;;;17.30;70.60;;;;;;5091147;28;20028;-55
2021/07/08 05:32:24;;;;;;;9.77;6.32;;;17.20;70.70;;;;;;5091320;28;20039;-60
2021/07/08 05:34:51;;;;;;;13.23;6.85;;;17.10;71.70;;;;;;5090037;28;20028;-63
2021/07/08 05:37:18;;;;;;;11.55;8.27;;;17.00;71.70;;;;;;5090466;28;20028;-62
2021/07/08 05:39:46;;;;;;;9.13;7.65;;;17.00;72.90;;;;;;5091005;28;20100;-62
2021/07/08 05:42:13;;;;;;;7.97;6.28;;;16.90;73.30;;;;;;5089778;28;20461;-59
2021/07/08 05:44:40;;;;;;;9.43;8.52;;;16.80;73.20;;;;;;5089946;28;20220;-60
2021/07/08 05:47:08;;;;;;;9.45;7.90;;;16.80;73.80;;;;;;5090143;28;20360;-62
2021/07/08 05:49:36;;;;;;;14.55;8.80;;;16.90;73.70;;;;;;5089893;28;20035;-60
2021/07/08 05:52:03;;;;;;;12.30;8.82;;;16.90;73.30;;;;;;5090360;28;20032;-58
2021/07/08 05:54:31;;;;;;;12.68;11.38;;;16.90;73.60;;;;;;5089928;28;20039;-58
2021/07/08 05:56:59;;;;;;;12.60;11.32;;;16.80;74.00;;;;;;5090003;28;20385;-56
2021/07/08 05:59:28;;;;;;;13.13;9.93;;;16.80;74.20;;;;;;5088381;28;20040;-58
2021/07/08 06:01:57;;;;;;;13.23;10.82;;;16.80;74.40;;;;;;5090496;28;20032;-61
2021/07/08 06:04:24;;;;;;;11.48;8.40;;;16.70;74.40;;;;;;5090218;28;20035;-58
2021/07/08 06:06:52;;;;;;;10.98;9.27;;;16.60;74.70;;;;;;5089872;28;20694;-57
2021/07/08 06:09:19;;;;;;;13.10;7.28;;;16.60;75.00;;;;;;5079917;28;20603;-57
2021/07/08 06:11:46;;;;;;;9.55;7.95;;;16.60;74.80;;;;;;5088405;28;20035;-54
2021/07/08 06:14:14;;;;;;;8.35;7.45;;;16.60;75.20;;;;;;5088791;28;20027;-57
2021/07/08 06:16:41;;;;;;;13.32;8.13;;;16.60;75.20;;;;;;5088597;28;20028;-56
2021/07/08 06:19:08;;;;;;;12.55;7.10;;;16.50;75.50;;;;;;5087435;28;20525;-54
2021/07/08 06:21:36;;;;;;;7.65;6.38;;;16.50;75.40;;;;;;5089252;28;20036;-49
2021/07/08 06:24:04;;;;;;;10.10;7.63;;;16.50;75.30;;;;;;5087921;28;20148;-52
2021/07/08 06:26:31;;;;;;;9.98;6.35;;;16.50;75.80;;;;;;5085174;28;20023;-50
2021/07/08 06:29:03;;;;;;;9.73;5.90;;;16.50;75.90;;;;;;5086411;28;20048;-58
2021/07/08 06:31:30;;;;;;;8.85;6.40;;;16.40;76.00;;;;;;5086866;28;20524;-58
2021/07/08 06:33:58;;;;;;;8.73;6.57;;;16.40;76.20;;;;;;5088001;28;20032;-53
2021/07/08 06:36:25;;;;;;;9.95;6.28;;;16.40;76.50;;;;;;5081001;28;20024;-55
2021/07/08 06:38:52;;;;;;;7.07;6.03;;;16.40;76.50;;;;;;5085580;28;20024;-59
2021/07/08 06:41:21;;;;;;;12.10;5.95;;;16.40;76.80;;;;;;5087106;28;20142;-58
2021/07/08 06:43:48;;;;;;;10.23;5.93;;;16.40;76.80;;;;;;5085243;28;20046;-64
2021/07/08 06:46:26;;;;;;;13.35;5.93;;;16.30;76.90;;;;;;5082714;28;20044;-57
2021/07/08 06:48:53;;;;;;;10.23;5.78;;;16.30;77.10;;;;;;5086508;28;20066;-58
2021/07/08 06:51:22;;;;;;;9.25;5.68;;;16.30;77.20;;;;;;5086690;28;20024;-58
2021/07/08 06:53:54;;;;;;;9.77;5.70;;;16.30;77.20;;;;;;5086935;28;20049;-56
2021/07/08 06:56:24;;;;;;;10.52;5.80;;;16.20;77.70;;;;;;5076893;28;20036;-62
2021/07/08 06:58:52;;;;;;;7.63;4.82;;;16.20;78.00;;;;;;5086691;28;20032;-62
2021/07/08 07:01:20;;;;;;;6.70;4.90;;;16.20;78.00;;;;;;5083109;28;20047;-56
2021/07/08 07:03:48;;;;;;;6.40;4.45;;;16.20;78.60;;;;;;5090490;28;20083;-56
2021/07/08 07:06:15;;;;;;;9.32;5.32;;;16.20;78.40;;;;;;5081790;28;20027;-48
2021/07/08 07:08:44;;;;;;;6.00;4.50;;;16.10;78.30;;;;;;5087213;28;20039;-49
2021/07/08 07:11:11;;;;;;;13.90;5.68;;;16.10;78.40;;;;;;5085305;28;20051;-50
2021/07/08 07:13:42;;;;;;;9.80;4.80;;;16.10;78.20;;;;;;5088258;28;20181;-53
2021/07/08 07:16:09;;;;;;;10.73;5.32;;;16.10;78.60;;;;;;5087965;28;20078;-55
2021/07/08 07:18:39;;;;;;;12.05;5.18;;;16.00;78.70;;;;;;5088411;28;20028;-52
2021/07/08 07:21:10;;;;;;;9.57;4.93;;;16.00;79.00;;;;;;5088788;28;20036;-54
2021/07/08 07:23:39;;;;;;;12.30;4.83;;;16.00;79.30;;;;;;5088833;28;20035;-52
2021/07/08 07:26:06;;;;;;;8.57;4.53;;;15.90;79.40;;;;;;5088585;28;20028;-50
2021/07/08 07:28:34;;;;;;;7.75;4.72;;;15.90;79.60;;;;;;5088424;28;20070;-55
2021/07/08 07:31:03;;;;;;;6.35;4.35;;;15.90;79.50;;;;;;5088158;28;20370;-58
2021/07/08 07:33:30;;;;;;;12.25;4.88;;;15.80;79.70;;;;;;5088406;28;20032;-55
2021/07/08 07:35:58;;;;;;;21.00;4.55;;;15.90;79.80;;;;;;5088197;28;20024;-49
2021/07/08 07:38:25;;;;;;;7.47;4.60;;;15.80;79.90;;;;;;5088372;28;20474;-58
2021/07/08 07:40:53;;;;;;;6.35;4.22;;;15.80;80.00;;;;;;5088295;28;20028;-47
2021/07/08 07:43:20;;;;;;;8.07;4.30;;;15.80;80.10;;;;;;5088839;28;20024;-57
2021/07/08 07:45:49;;;;;;;12.65;4.72;;;15.80;80.10;;;;;;5087191;28;20036;-60
2021/07/08 07:48:17;;;;;;;7.78;4.60;;;15.70;80.20;;;;;;5088519;28;20040;-59
2021/07/08 07:50:45;;;;;;;7.15;4.10;;;15.70;80.30;;;;;;5087497;28;20079;-53
2021/07/08 07:53:12;;;;;;;5.78;3.85;;;15.70;80.40;;;;;;5088545;28;20173;-54
2021/07/08 07:55:43;;;;;;;10.23;4.18;;;15.70;80.40;;;;;;5092341;28;20032;-53
2021/07/08 07:58:10;;;;;;;7.85;4.45;;;15.70;80.40;;;;;;5092137;28;20399;-53
2021/07/08 08:00:38;;;;;;;8.07;4.15;;;15.70;80.60;;;;;;5092385;28;20192;-55
2021/07/08 08:03:05;;;;;;;10.00;4.18;;;15.70;80.70;;;;;;5092560;28;20035;-52
2021/07/08 08:05:37;;;;;;;10.35;3.55;;;15.70;80.60;;;;;;5092537;28;20065;-54
2021/07/08 08:10:51;;;;;;;9.68;3.65;;;15.60;80.60;;;;;;5092602;28;20096;-56
2021/07/08 08:13:20;;;;;;;8.45;3.88;;;15.60;80.90;;;;;;5092098;28;20067;-55
2021/07/08 08:15:50;;;;;;;9.60;4.13;;;15.60;81.00;;;;;;5092173;28;20066;-53
2021/07/08 08:18:18;;;;;;;5.97;4.20;;;15.60;81.30;;;;;;5091997;28;20529;-52
2021/07/08 08:20:46;;;;;;;13.85;3.90;;;15.60;81.50;;;;;;5090646;28;20073;-53
2021/07/08 08:23:14;;;;;;;10.32;4.07;;;15.60;82.00;;;;;;5091234;28;20494;-53
2021/07/08 08:25:42;;;;;;;15.27;4.78;;;15.60;81.90;;;;;;5092041;28;20443;-52
2021/07/08 08:28:10;;;;;;;4.85;3.85;;;15.60;81.80;;;;;;5091494;28;20513;-54
2021/07/08 08:30:38;;;;;;;7.60;3.95;;;15.60;81.90;;;;;;5091440;28;20149;-53
2021/07/08 08:33:06;;;;;;;10.77;3.65;;;15.60;81.80;;;;;;5091071;28;20028;-58
2021/07/08 08:35:34;;;;;;;8.38;3.47;;;15.50;81.80;;;;;;5091996;28;20428;-53
2021/07/08 08:38:01;;;;;;;4.50;3.35;;;15.60;81.90;;;;;;5091901;28;20032;-54
2021/07/08 08:40:29;;;;;;;11.32;3.50;;;15.60;81.90;;;;;;5083538;28;20039;-51
2021/07/08 08:42:56;;;;;;;9.70;4.18;;;15.60;82.40;;;;;;5088929;28;20055;-54
2021/07/08 08:45:25;;;;;;;8.88;3.78;;;15.50;82.40;;;;;;5090702;28;20090;-53
2021/07/08 08:47:58;;;;;;;8.82;3.83;;;15.50;82.20;;;;;;5088591;28;20475;-54
2021/07/08 08:50:26;;;;;;;10.63;3.45;;;15.50;82.10;;;;;;5088276;28;20028;-56
2021/07/08 08:52:54;;;;;;;7.40;4.32;;;15.60;82.00;;;;;;5087419;28;20035;-53
2021/07/08 08:55:21;;;;;;;6.85;3.25;;;15.60;82.00;;;;;;5087376;28;20089;-53
2021/07/08 08:57:49;;;;;;;7.10;3.22;;;15.50;81.90;;;;;;5089722;28;20031;-54
2021/07/08 09:00:25;;;;;;;7.03;3.28;;;15.60;81.80;;;;;;5085890;28;20024;-54
2021/07/08 09:03:07;;;;;;;6.10;3.35;;;15.60;81.80;;;;;;5086335;28;20036;-53
2021/07/08 09:05:37;;;;;;;9.15;3.15;;;15.60;81.70;;;;;;5085662;28;20463;-54
2021/07/08 09:08:20;;;;;;;4.88;3.25;;;15.50;81.50;;;;;;5089873;28;20603;-57
2021/07/08 09:11:08;;;;;;;19.02;5.10;;;15.50;81.70;;;;;;5081432;28;20031;-46
2021/07/08 09:13:48;;;;;;;6.18;3.55;;;15.60;81.60;;;;;;5086575;28;20451;-51
2021/07/08 09:16:29;;;;;;;10.13;4.35;;;15.60;81.60;;;;;;5087448;28;20024;-54
2021/07/08 09:19:06;;;;;;;4.40;3.17;;;15.60;81.60;;;;;;5085231;28;20031;-52
2021/07/08 09:21:43;;;;;;;8.63;3.50;;;15.60;81.60;;;;;;5088644;28;20028;-55
2021/07/08 09:24:22;;;;;;;9.43;3.97;;;15.60;81.50;;;;;;5088235;28;20101;-54
2021/07/08 09:26:57;;;;;;;7.10;3.55;;;15.60;81.60;;;;;;5088423;28;20081;-55
2021/07/08 09:29:30;;;;;;;5.47;3.60;;;15.50;81.50;;;;;;5084607;28;20720;-51
2021/07/08 09:32:14;;;;;;;5.90;3.83;;;15.60;81.60;;;;;;5088144;28;20035;-53
2021/07/08 09:34:43;;;;;;;8.18;3.53;;;15.60;81.60;;;;;;5089060;28;20491;-56
2021/07/08 09:37:26;;;;;;;8.07;3.25;;;15.50;81.70;;;;;;5088525;28;20044;-48
2021/07/08 09:39:56;;;;;;;7.18;3.55;;;15.60;81.80;;;;;;5084432;28;20027;-54
2021/07/08 09:42:45;;;;;;;5.82;3.85;;;15.60;81.90;;;;;;5087855;28;20036;-52
2021/07/08 09:45:17;;;;;;;7.47;3.42;;;15.50;81.90;;;;;;5088987;28;20492;-50
2021/07/08 09:47:48;;;;;;;8.32;3.90;;;15.50;82.00;;;;;;5086831;28;20132;-52
2021/07/08 09:50:38;;;;;;;8.32;3.83;;;15.50;82.20;;;;;;5081781;28;20024;-53
2021/07/08 09:53:08;;;;;;;5.70;3.42;;;15.50;82.30;;;;;;5087803;28;20024;-48
2021/07/08 09:55:59;;;;;;;4.63;3.20;;;15.50;82.40;;;;;;5088889;28;20028;-49
2021/07/08 09:58:27;;;;;;;4.65;3.47;;;15.50;82.50;;;;;;5086107;28;20028;-48
2021/07/08 10:00:55;;;;;;;5.72;3.20;;;15.40;82.60;;;;;;5083887;28;20024;-47
2021/07/08 10:03:22;;;;;;;10.65;4.10;;;15.40;82.80;;;;;;5088420;28;20403;-51
2021/07/08 10:05:50;;;;;;;7.20;3.83;;;15.40;82.90;;;;;;5089073;28;20054;-48
2021/07/08 10:08:21;;;;;;;10.70;4.65;;;15.40;83.10;;;;;;5088948;28;20044;-48
2021/07/08 10:10:49;;;;;;;20.48;6.40;;;15.30;83.70;;;;;;5082979;28;20126;-50
2021/07/08 10:13:17;;;;;;;14.48;5.68;;;15.30;83.30;;;;;;5085395;28;20043;-50
2021/07/08 10:15:50;;;;;;;22.08;8.20;;;15.30;83.40;;;;;;5085309;28;20470;-47
2021/07/08 10:18:18;;;;;;;19.83;7.40;;;15.30;84.50;;;;;;5088882;28;20107;-53
2021/07/08 10:20:51;;;;;;;19.63;7.45;;;15.30;84.00;;;;;;5081148;28;20024;-47
2021/07/08 10:23:19;;;;;;;18.10;7.10;;;15.40;84.30;;;;;;5085205;28;20031;-48
2021/07/08 10:25:48;;;;;;;18.50;6.97;;;15.40;84.20;;;;;;5088571;28;20031;-54
2021/07/08 10:28:16;;;;;;;21.20;7.15;;;15.40;84.10;;;;;;5083405;28;20047;-55
2021/07/08 10:30:45;;;;;;;23.02;9.32;;;15.40;84.10;;;;;;5082982;28;20054;-53
2021/07/08 10:33:13;;;;;;;15.40;7.25;;;15.40;84.00;;;;;;5087391;28;20044;-50
2021/07/08 10:35:41;;;;;;;25.13;8.60;;;15.40;84.10;;;;;;5085518;28;20206;-53
2021/07/08 10:38:33;;;;;;;25.55;8.27;;;15.40;84.10;;;;;;5088102;28;20377;-51
2021/07/08 10:41:23;;;;;;;24.20;9.43;;;15.40;84.10;;;;;;5082506;28;20485;-51
2021/07/08 10:43:50;;;;;;;23.70;9.68;;;15.40;84.20;;;;;;5084762;28;20024;-55
2021/07/08 10:46:18;;;;;;;26.50;9.95;;;15.40;84.30;;;;;;5087455;28;20028;-46
2021/07/08 10:48:51;;;;;;;26.48;10.32;;;15.40;84.20;;;;;;5085281;28;20039;-49
2021/07/08 10:51:17;;;;;;;;;;;15.40;84.20;;;;;;5088106;28;20479;-56
2021/07/08 10:53:50;;;;;;;23.17;8.63;;;15.40;84.20;;;;;;5088005;28;19907;-47
2021/07/08 10:56:34;;;;;;;24.73;9.55;;;15.40;84.20;;;;;;5088446;28;20442;-46
2021/07/08 10:59:13;;;;;;;23.50;9.48;;;15.40;84.10;;;;;;5080509;28;20056;-54
2021/07/08 11:01:45;;;;;;;24.02;9.18;;;15.40;84.10;;;;;;5087770;28;20020;-48
2021/07/08 11:04:13;;;;;;;23.02;8.63;;;15.30;83.90;;;;;;5085720;28;20060;-47
2021/07/08 11:06:45;;;;;;;30.95;10.05;;;15.40;83.90;;;;;;5087719;28;20040;-46
2021/07/08 11:09:19;;;;;;;28.77;10.40;;;15.30;83.80;;;;;;5083116;28;20085;-53
2021/07/08 11:11:50;;;;;;;27.60;9.48;;;15.30;84.00;;;;;;5086078;28;20256;-48
2021/07/08 11:14:19;;;;;;;27.67;10.15;;;15.20;84.10;;;;;;5087383;28;20505;-50
2021/07/08 11:17:02;;;;;;;25.60;10.27;;;15.20;84.00;;;;;;5087482;28;20054;-55
2021/07/08 11:19:29;;;;;;;30.58;9.98;;;15.20;84.00;;;;;;5079573;28;20513;-45
2021/07/08 11:22:10;;;;;;;25.75;9.63;;;15.10;84.00;;;;;;5087163;28;20059;-48
2021/07/08 11:24:41;;;;;;;29.25;10.30;;;15.10;84.00;;;;;;5069308;28;20491;-62
2021/07/08 11:27:11;;;;;;;23.90;9.82;;;15.10;84.00;;;;;;5068789;28;20035;-58
2021/07/08 11:29:59;;;;;;;29.83;10.32;;;15.00;84.00;;;;;;5069272;28;20109;-52
2021/07/08 11:32:39;;;;;;;25.25;9.45;;;14.90;84.50;;;;;;5068655;28;20024;-56
2021/07/08 11:35:11;;;;;;;26.65;10.52;;;14.90;84.50;;;;;;5069150;28;20447;-59
2021/07/08 11:37:40;;;;;;;27.33;10.77;;;14.90;84.50;;;;;;5068792;28;20112;-54
2021/07/08 11:40:10;;;;;;;25.60;10.05;;;14.90;84.50;;;;;;5069225;28;20031;-60
2021/07/08 11:42:39;;;;;;;27.63;10.30;;;14.80;84.40;;;;;;5069426;28;20028;-56
2021/07/08 11:45:07;;;;;;;24.58;9.00;;;14.80;84.50;;;;;;5069617;28;20379;-57
2021/07/08 11:47:42;;;;;;;20.40;10.18;;;14.80;84.60;;;;;;5069414;28;20491;-62
2021/07/08 11:50:30;;;;;;;20.13;9.60;;;14.80;84.50;;;;;;5069612;28;20031;-55
2021/07/08 11:53:16;;;;;;;25.75;9.65;;;14.70;84.40;;;;;;5067918;28;20066;-53
2021/07/08 11:55:46;;;;;;;22.73;9.13;;;14.70;84.40;;;;;;5069318;28;20029;-49
2021/07/08 11:58:21;;;;;;;21.27;9.70;;;14.70;84.50;;;;;;5069726;28;20467;-53
2021/07/08 12:00:51;;;;;;;22.45;9.70;;;14.70;84.60;;;;;;5069226;28;20090;-50
2021/07/08 12:03:39;;;;;;;22.80;9.27;;;14.70;84.60;;;;;;5066112;28;20731;-54
2021/07/08 12:06:12;;;;;;;22.45;9.45;;;14.60;84.50;;;;;;5085741;28;20028;-60
2021/07/08 12:08:46;;;;;;;25.88;11.02;;;14.60;84.40;;;;;;5087083;28;20517;-57
2021/07/08 12:11:21;;;;;;;20.88;9.55;;;14.60;84.50;;;;;;5084443;28;20043;-57
2021/07/08 12:14:04;;;;;;;20.35;9.57;;;14.60;84.50;;;;;;5086531;28;20064;-52
2021/07/08 12:16:37;;;;;;;20.77;9.18;;;14.60;84.30;;;;;;5087100;28;20031;-48
2021/07/08 12:19:18;;;;;;;21.55;8.55;;;14.60;84.50;;;;;;5085972;28;20097;-49
2021/07/08 12:21:48;;;;;;;21.98;10.27;;;14.60;84.40;;;;;;5087310;28;20016;-56
2021/07/08 12:24:24;;;;;;;21.13;9.45;;;14.50;84.30;;;;;;5087311;28;20119;-48
2021/07/08 12:27:02;;;;;;;21.55;9.20;;;14.50;84.20;;;;;;5086123;28;20089;-53
2021/07/08 12:29:37;;;;;;;19.40;8.80;;;14.50;84.00;;;;;;5082829;28;20059;-55
2021/07/08 12:32:13;;;;;;;25.10;10.52;;;14.50;84.00;;;;;;5086985;28;20573;-59
2021/07/08 12:34:59;;;;;;;22.52;8.65;;;14.50;83.90;;;;;;5087288;28;20032;-54
2021/07/08 12:37:33;;;;;;;18.60;9.02;;;14.50;83.90;;;;;;5086479;28;20062;-47
2021/07/08 12:40:14;;;;;;;20.33;8.98;;;14.50;83.70;;;;;;5084533;28;20032;-54
2021/07/08 12:42:47;;;;;;;19.50;9.13;;;14.50;83.60;;;;;;5089642;28;20020;-55
2021/07/08 12:45:19;;;;;;;20.08;9.00;;;14.50;83.60;;;;;;5087381;28;20028;-58
2021/07/08 12:47:51;;;;;;;22.60;10.73;;;14.50;83.50;;;;;;5071883;28;20071;-56
2021/07/08 12:50:22;;;;;;;17.35;8.57;;;14.50;83.50;;;;;;5072463;28;20547;-57
2021/07/08 12:52:50;;;;;;;19.92;9.02;;;14.50;83.50;;;;;;5071691;28;20392;-53
2021/07/08 12:55:55;;;;;;;14.32;7.55;;;14.50;83.70;;;;;;5071893;28;20585;-54
2021/07/08 12:58:28;;;;;;;19.25;9.38;;;14.40;83.60;;;;;;5069711;28;20144;-57
2021/07/08 13:01:04;;;;;;;18.85;8.80;;;14.40;83.50;;;;;;5071278;28;20033;-55